Time;durP1;ratioP1;P1;durP2;ratioP2;P2;SDS_P1;SDS_P2;PMS_P1;PMS_P2;Temp;Humidity;BMP_temperature;BMP_pressure;BME280_temperature;BME280_humidity;BME280_pressure;Samples;Min_cycle;Max_cycle;Signal;HPM_P1;HPM_P2
2022/05/14 00:00:27;;;;;;;12.85;4.40;;;11.00;99.90;;;;;;4954763;29;20477;-72
2022/05/14 00:02:55;;;;;;;19.30;3.72;;;11.10;99.90;;;;;;4955630;29;20051;-72
2022/05/14 00:05:23;;;;;;;13.00;3.97;;;11.00;99.90;;;;;;4955384;29;20090;-73
2022/05/14 00:07:51;;;;;;;10.80;3.15;;;11.00;99.90;;;;;;4954463;29;20403;-72
2022/05/14 00:10:17;;;;;;;;;;;11.00;99.90;;;;;;4956442;29;20063;-72
2022/05/14 00:15:27;;;;;;;11.82;3.08;;;11.00;99.90;;;;;;4954677;29;20121;-73
2022/05/14 00:17:54;;;;;;;14.35;2.70;;;11.00;99.90;;;;;;4938305;29;20047;-72
2022/05/14 00:20:23;;;;;;;11.18;2.67;;;11.10;99.90;;;;;;4955495;28;20053;-73
2022/05/14 00:22:52;;;;;;;9.70;2.70;;;11.10;99.90;;;;;;4954474;29;20055;-72
2022/05/14 00:25:19;;;;;;;11.93;2.80;;;11.10;99.90;;;;;;4955292;29;20044;-73
2022/05/14 00:27:46;;;;;;;11.95;2.80;;;11.10;99.90;;;;;;4955825;28;20043;-72
2022/05/14 00:30:13;;;;;;;8.80;2.85;;;11.10;99.90;;;;;;4955489;29;20082;-72
2022/05/14 00:32:40;;;;;;;11.93;2.85;;;11.10;99.90;;;;;;4955122;28;20047;-73
2022/05/14 00:35:09;;;;;;;7.80;2.45;;;11.10;99.90;;;;;;4955714;28;20371;-71
2022/05/14 00:37:35;;;;;;;8.73;3.08;;;11.20;99.90;;;;;;4969965;28;20054;-73
2022/05/14 00:40:09;;;;;;;13.05;2.83;;;11.10;99.90;;;;;;4955619;29;20046;-72
2022/05/14 00:42:35;;;;;;;16.77;3.75;;;11.10;99.90;;;;;;4955275;29;20090;-72
2022/05/14 00:45:01;;;;;;;9.32;3.08;;;11.20;99.90;;;;;;4969592;28;20043;-71
2022/05/14 00:47:33;;;;;;;11.43;3.55;;;11.20;99.90;;;;;;4937626;29;20051;-72
2022/05/14 00:49:59;;;;;;;7.10;2.70;;;11.20;99.90;;;;;;4954514;29;20113;-72
2022/05/14 00:52:24;;;;;;;10.65;3.30;;;11.20;99.90;;;;;;4955675;28;20506;-71
2022/05/14 00:55:00;;;;;;;13.88;3.17;;;11.20;99.90;;;;;;4954062;29;20055;-76
2022/05/14 00:57:30;;;;;;;10.85;2.60;;;11.20;99.90;;;;;;4954712;29;20443;-76
2022/05/14 00:59:59;;;;;;;10.02;2.35;;;11.30;99.90;;;;;;4953897;29;20044;-72
2022/05/14 01:02:25;;;;;;;17.20;3.10;;;11.30;99.90;;;;;;4969448;28;20043;-72
2022/05/14 01:04:51;;;;;;;10.88;3.15;;;11.20;99.90;;;;;;4937460;29;20550;-75
2022/05/14 01:07:20;;;;;;;10.13;3.25;;;11.20;99.90;;;;;;4953449;29;20082;-74
2022/05/14 01:09:52;;;;;;;9.40;3.63;;;11.20;99.90;;;;;;4953456;29;20142;-71
2022/05/14 01:12:21;;;;;;;9.02;2.65;;;11.20;99.90;;;;;;4969429;28;20063;-72
2022/05/14 01:14:47;;;;;;;12.75;3.67;;;11.20;99.90;;;;;;4969160;28;20531;-75
2022/05/14 01:17:13;;;;;;;14.75;2.58;;;11.10;99.90;;;;;;4954283;29;20055;-73
2022/05/14 01:19:39;;;;;;;14.77;3.25;;;11.00;99.90;;;;;;4969299;28;20058;-72
2022/05/14 01:22:05;;;;;;;12.93;3.25;;;11.00;99.90;;;;;;4954179;29;20043;-73
2022/05/14 01:27:17;;;;;;;;;;;11.00;99.90;;;;;;4954962;29;20077;-72
2022/05/14 01:29:44;;;;;;;13.63;3.13;;;11.00;99.90;;;;;;4954411;29;20009;-72
2022/05/14 01:32:10;;;;;;;10.07;2.65;;;11.00;99.90;;;;;;4953747;28;20055;-72
2022/05/14 01:34:36;;;;;;;10.23;2.78;;;11.00;99.90;;;;;;4954300;28;20475;-72
2022/05/14 01:37:03;;;;;;;11.88;2.70;;;11.00;99.90;;;;;;4954162;28;20058;-72
2022/05/14 01:39:29;;;;;;;10.27;2.80;;;11.10;99.90;;;;;;4953158;29;20051;-72
2022/05/14 01:41:55;;;;;;;16.25;2.63;;;11.00;99.90;;;;;;4954118;29;20054;-72
2022/05/14 01:44:22;;;;;;;19.30;3.20;;;11.00;99.90;;;;;;4954153;29;20419;-71
2022/05/14 01:46:48;;;;;;;17.30;3.40;;;11.10;99.90;;;;;;4952978;29;20047;-71
2022/05/14 01:49:14;;;;;;;13.65;3.05;;;11.10;99.90;;;;;;4954497;28;20047;-72
2022/05/14 01:51:40;;;;;;;13.80;3.08;;;11.10;99.90;;;;;;4952513;29;20043;-72
2022/05/14 01:54:06;;;;;;;12.43;2.85;;;11.10;99.90;;;;;;4954369;29;20055;-73
2022/05/14 01:56:32;;;;;;;11.88;3.10;;;11.10;99.90;;;;;;4937255;29;20058;-72
2022/05/14 01:58:58;;;;;;;9.98;3.05;;;11.20;99.90;;;;;;4954169;29;20047;-72
2022/05/14 02:01:25;;;;;;;17.27;3.20;;;11.10;99.90;;;;;;4952550;29;20119;-72
2022/05/14 02:03:56;;;;;;;14.82;3.15;;;11.10;99.90;;;;;;4953605;28;20496;-72
2022/05/14 02:06:24;;;;;;;12.35;3.20;;;11.00;99.90;;;;;;4953292;29;20395;-73
2022/05/14 02:08:50;;;;;;;;;;;11.00;99.90;;;;;;4954511;29;20081;-73
2022/05/14 02:11:16;;;;;;;12.10;2.97;;;10.90;99.90;;;;;;4953900;29;20362;-73
2022/05/14 02:13:43;;;;;;;15.95;3.20;;;10.90;99.90;;;;;;4954194;28;20439;-73
2022/05/14 02:16:08;;;;;;;12.77;3.15;;;10.80;99.90;;;;;;4953902;28;20406;-73
2022/05/14 02:18:35;;;;;;;17.58;3.30;;;10.80;99.90;;;;;;4953771;28;20149;-73
2022/05/14 02:21:02;;;;;;;19.75;4.18;;;10.80;99.90;;;;;;4953932;29;20098;-72
2022/05/14 02:23:28;;;;;;;18.50;3.03;;;10.90;99.90;;;;;;4952826;29;20051;-72
2022/05/14 02:25:54;;;;;;;14.32;3.10;;;10.90;99.90;;;;;;4968985;28;20054;-71
2022/05/14 02:28:20;;;;;;;14.93;3.58;;;10.90;99.90;;;;;;4953811;28;20423;-73
2022/05/14 02:30:46;;;;;;;17.30;3.58;;;11.00;99.90;;;;;;4954276;29;20451;-79
2022/05/14 02:33:12;;;;;;;16.50;3.28;;;10.90;99.90;;;;;;4953725;28;20103;-73
2022/05/14 02:35:38;;;;;;;14.60;3.10;;;11.00;99.90;;;;;;4953984;28;20134;-72
2022/05/14 02:38:04;;;;;;;12.88;3.20;;;11.00;99.90;;;;;;4952452;29;20378;-72
2022/05/14 02:40:30;;;;;;;15.52;3.20;;;11.00;99.90;;;;;;4953036;29;20387;-75
2022/05/14 02:42:56;;;;;;;14.77;3.78;;;11.00;99.90;;;;;;4953773;28;20055;-72
2022/05/14 02:45:22;;;;;;;13.32;3.75;;;11.00;99.90;;;;;;4957137;29;20156;-72
2022/05/14 02:47:48;;;;;;;17.42;4.28;;;11.00;99.90;;;;;;4971978;28;20561;-72
2022/05/14 02:50:15;;;;;;;17.83;3.88;;;11.00;99.90;;;;;;4957188;28;20051;-73
2022/05/14 02:52:41;;;;;;;13.25;4.60;;;10.90;99.90;;;;;;4957204;28;20055;-72
2022/05/14 02:55:07;;;;;;;18.57;4.03;;;10.90;99.90;;;;;;4957470;29;20139;-75
2022/05/14 02:57:34;;;;;;;18.48;4.65;;;10.90;99.90;;;;;;4956040;29;20319;-72
2022/05/14 03:00:01;;;;;;;13.18;4.00;;;10.90;99.90;;;;;;4939846;29;20051;-73
2022/05/14 03:02:26;;;;;;;15.20;4.25;;;10.90;99.90;;;;;;4956948;29;20090;-72
2022/05/14 03:04:52;;;;;;;16.45;3.83;;;10.80;99.90;;;;;;4957030;28;20082;-73
2022/05/14 03:07:18;;;;;;;16.05;3.97;;;10.80;99.90;;;;;;4957001;29;20055;-75
2022/05/14 03:09:44;;;;;;;13.02;3.95;;;10.70;99.90;;;;;;4955523;29;20122;-72
2022/05/14 03:12:13;;;;;;;16.73;3.65;;;10.70;99.90;;;;;;4956989;29;20475;-72
2022/05/14 03:14:39;;;;;;;23.13;4.38;;;10.60;99.90;;;;;;4956711;28;20142;-72
2022/05/14 03:17:06;;;;;;;18.33;4.22;;;10.50;99.90;;;;;;4971309;28;20106;-74
2022/05/14 03:19:32;;;;;;;17.48;4.28;;;10.40;99.90;;;;;;4939480;29;20059;-73
2022/05/14 03:21:59;;;;;;;17.65;4.00;;;10.30;99.90;;;;;;4956553;29;20513;-73
2022/05/14 03:24:25;;;;;;;14.10;3.53;;;10.30;99.90;;;;;;4956900;28;20382;-77
2022/05/14 03:26:51;;;;;;;13.35;3.60;;;10.20;99.90;;;;;;4956461;29;20480;-74
2022/05/14 03:29:17;;;;;;;15.80;3.70;;;10.10;99.90;;;;;;4971288;28;20047;-73
2022/05/14 03:31:43;;;;;;;15.45;3.83;;;10.00;99.90;;;;;;4956814;28;20055;-73
2022/05/14 03:34:12;;;;;;;15.40;3.92;;;10.00;99.90;;;;;;4956314;28;20047;-72
2022/05/14 03:36:41;;;;;;;15.73;3.90;;;9.90;99.90;;;;;;4956523;29;20467;-72
2022/05/14 03:39:08;;;;;;;14.73;4.03;;;9.80;99.90;;;;;;4956183;28;20197;-72
2022/05/14 03:41:34;;;;;;;13.90;3.95;;;9.80;99.90;;;;;;4971011;28;20109;-72
2022/05/14 03:43:59;;;;;;;19.75;3.92;;;9.70;99.90;;;;;;4955379;29;20205;-72
2022/05/14 03:46:25;;;;;;;15.80;4.30;;;9.70;99.90;;;;;;4955762;28;20138;-73
2022/05/14 03:48:51;;;;;;;20.50;4.45;;;9.70;99.90;;;;;;4956060;29;20066;-72
2022/05/14 03:51:17;;;;;;;24.63;5.38;;;9.60;99.90;;;;;;4956391;28;20190;-75
2022/05/14 03:53:43;;;;;;;17.10;4.30;;;9.50;99.90;;;;;;4954635;28;20352;-74
2022/05/14 03:56:08;;;;;;;11.35;4.00;;;9.60;99.90;;;;;;4955590;29;20468;-78
2022/05/14 03:58:35;;;;;;;16.05;4.07;;;9.50;99.90;;;;;;4954419;29;20047;-73
2022/05/14 04:01:02;;;;;;;21.67;4.50;;;9.50;99.90;;;;;;4954642;29;20138;-72
2022/05/14 04:03:28;;;;;;;12.90;4.15;;;9.40;99.90;;;;;;4955594;29;20290;-73
2022/05/14 04:05:54;;;;;;;18.55;4.57;;;9.40;99.90;;;;;;4955599;28;20047;-74
2022/05/14 04:08:20;;;;;;;16.95;4.93;;;9.40;99.90;;;;;;4954173;29;20469;-74
2022/05/14 04:10:46;;;;;;;12.70;4.45;;;9.40;99.90;;;;;;4955535;28;20070;-80
2022/05/14 04:13:13;;;;;;;16.65;4.40;;;9.50;99.90;;;;;;4955868;28;20373;-72
2022/05/14 04:15:39;;;;;;;15.48;4.63;;;9.50;99.90;;;;;;4954335;29;20051;-72
2022/05/14 04:18:05;;;;;;;16.63;5.07;;;9.50;99.90;;;;;;4955923;29;20156;-73
2022/05/14 04:20:31;;;;;;;19.98;4.45;;;9.50;99.90;;;;;;4955558;28;20415;-72
2022/05/14 04:22:57;;;;;;;15.07;4.80;;;9.50;99.90;;;;;;4954165;29;20134;-72
2022/05/14 04:25:24;;;;;;;16.27;4.55;;;9.60;99.90;;;;;;4953922;29;20066;-73
2022/05/14 04:27:50;;;;;;;14.90;5.03;;;9.70;99.90;;;;;;4954114;29;20138;-72
2022/05/14 04:30:17;;;;;;;19.75;4.93;;;9.70;99.90;;;;;;4955270;28;20195;-73
2022/05/14 04:32:43;;;;;;;17.90;5.32;;;9.80;99.90;;;;;;4955206;29;20089;-73
2022/05/14 04:35:12;;;;;;;33.22;5.68;;;9.90;99.90;;;;;;4953958;29;20149;-72
2022/05/14 04:37:37;;;;;;;17.80;5.18;;;9.90;99.90;;;;;;4954790;29;20148;-72
2022/05/14 04:40:05;;;;;;;14.73;4.95;;;10.00;99.90;;;;;;4955441;29;20079;-73
2022/05/14 04:42:31;;;;;;;14.98;4.93;;;10.10;99.90;;;;;;4938408;29;20138;-73
2022/05/14 04:44:57;;;;;;;16.15;5.25;;;10.20;99.90;;;;;;4955058;29;20131;-74
2022/05/14 04:47:23;;;;;;;20.42;5.25;;;10.30;99.90;;;;;;4954941;28;20058;-73
2022/05/14 04:49:49;;;;;;;20.98;4.97;;;10.40;99.90;;;;;;4953946;29;20152;-72
2022/05/14 04:52:16;;;;;;;14.18;4.65;;;10.40;99.90;;;;;;4954124;29;20083;-81
2022/05/14 04:54:42;;;;;;;18.65;4.85;;;10.40;99.90;;;;;;4953640;29;20053;-72
2022/05/14 04:57:08;;;;;;;18.85;4.72;;;10.50;99.90;;;;;;4954869;28;20047;-73
2022/05/14 04:59:35;;;;;;;15.95;5.68;;;10.50;99.90;;;;;;4954821;29;20065;-76
2022/05/14 05:04:46;;;;;;;20.00;5.35;;;10.60;99.90;;;;;;4953693;29;20063;-72
2022/05/14 05:07:11;;;;;;;22.08;5.03;;;10.60;99.90;;;;;;4954486;28;20146;-73
2022/05/14 05:09:37;;;;;;;22.50;5.75;;;10.70;99.90;;;;;;4954145;29;20175;-73
2022/05/14 05:12:05;;;;;;;20.33;4.95;;;10.80;99.90;;;;;;4954521;28;20062;-73
2022/05/14 05:14:30;;;;;;;;;;;10.80;99.90;;;;;;4954998;29;20043;-74
2022/05/14 05:16:57;;;;;;;17.83;4.40;;;11.10;99.90;;;;;;4954531;29;19977;-73
2022/05/14 05:19:24;;;;;;;25.48;5.03;;;11.00;99.90;;;;;;4954523;28;20113;-73
2022/05/14 05:21:50;;;;;;;14.25;5.20;;;11.00;99.90;;;;;;4954494;28;20396;-72
2022/05/14 05:24:16;;;;;;;21.33;5.87;;;11.00;99.90;;;;;;4954183;29;20091;-72
2022/05/14 05:26:42;;;;;;;19.40;5.60;;;11.00;99.90;;;;;;4954928;29;20105;-73
2022/05/14 05:29:08;;;;;;;18.65;5.20;;;11.40;99.90;;;;;;4954392;28;20078;-74
2022/05/14 05:31:35;;;;;;;13.57;5.00;;;11.30;99.90;;;;;;4952847;29;20459;-74
2022/05/14 05:34:02;;;;;;;13.40;4.80;;;11.40;99.90;;;;;;4953908;29;20050;-74
2022/05/14 05:36:28;;;;;;;22.95;5.78;;;11.50;99.90;;;;;;4954693;29;20408;-73
2022/05/14 05:38:54;;;;;;;17.75;5.32;;;11.40;99.90;;;;;;4954196;28;20057;-72
2022/05/14 05:41:21;;;;;;;18.07;5.37;;;11.50;99.90;;;;;;4954130;28;20511;-72
2022/05/14 05:43:47;;;;;;;;;;;11.70;99.90;;;;;;4954507;29;20043;-72
2022/05/14 05:46:13;;;;;;;17.57;4.97;;;11.70;99.90;;;;;;4953260;29;19929;-72
2022/05/14 05:48:40;;;;;;;22.83;5.87;;;11.90;99.90;;;;;;4953381;29;20051;-74
2022/05/14 05:51:05;;;;;;;20.92;6.15;;;11.90;99.90;;;;;;4953428;29;20106;-74
2022/05/14 05:59:03;;;;;;;25.55;6.82;;;12.20;99.90;;;;;;4954228;29;20053;-73
2022/05/14 06:01:29;;;;;;;20.45;5.90;;;12.20;99.90;;;;;;4953959;28;20059;-72
2022/05/14 06:03:55;;;;;;;16.23;5.45;;;12.40;99.90;;;;;;4954174;28;20039;-73
2022/05/14 06:06:21;;;;;;;24.00;6.57;;;12.30;99.90;;;;;;4954307;28;20134;-73
2022/05/14 06:08:50;;;;;;;18.80;5.78;;;12.30;99.90;;;;;;4954006;29;20055;-72
2022/05/14 06:11:17;;;;;;;25.60;6.55;;;12.40;99.90;;;;;;4952600;29;20085;-73
2022/05/14 06:13:43;;;;;;;;;;;12.50;99.90;;;;;;4954980;29;20044;-73
2022/05/14 06:16:10;;;;;;;28.70;6.67;;;12.80;99.90;;;;;;4953429;28;20362;-73
2022/05/14 06:18:37;;;;;;;24.33;6.03;;;12.80;99.90;;;;;;4955240;28;20090;-74
2022/05/14 06:21:03;;;;;;;;;;;12.80;99.90;;;;;;4958094;28;20062;-73
2022/05/14 06:23:29;;;;;;;17.10;5.85;;;12.70;99.90;;;;;;4957673;28;19923;-73
2022/05/14 06:25:55;;;;;;;21.42;6.30;;;12.80;99.90;;;;;;4957590;29;20062;-74
2022/05/14 06:28:20;;;;;;;21.98;6.38;;;12.90;99.90;;;;;;4958075;28;20106;-73
2022/05/14 06:30:46;;;;;;;26.25;7.50;;;13.10;99.90;;;;;;4957690;28;20051;-80
2022/05/14 06:33:12;;;;;;;26.42;6.65;;;13.10;99.90;;;;;;4957031;29;20379;-73
2022/05/14 06:35:39;;;;;;;26.92;7.00;;;13.20;99.90;;;;;;4957777;29;20141;-74
2022/05/14 06:38:06;;;;;;;21.63;7.10;;;13.30;99.90;;;;;;4957575;28;20047;-74
2022/05/14 06:40:33;;;;;;;17.13;6.15;;;13.40;99.90;;;;;;4957676;29;20326;-72
2022/05/14 06:42:59;;;;;;;22.67;6.57;;;13.50;99.90;;;;;;4957397;28;20046;-75
2022/05/14 06:45:25;;;;;;;27.70;7.32;;;13.60;99.90;;;;;;4957361;28;20082;-73
2022/05/14 06:47:51;;;;;;;25.23;7.50;;;13.70;99.90;;;;;;4957880;29;20054;-73
2022/05/14 06:50:18;;;;;;;29.48;7.38;;;13.80;99.90;;;;;;4957426;28;20049;-73
2022/05/14 06:52:48;;;;;;;30.77;6.97;;;13.90;99.90;;;;;;4957313;29;20043;-72
2022/05/14 06:55:19;;;;;;;27.67;7.22;;;14.00;99.90;;;;;;4957383;28;20047;-72
2022/05/14 06:57:46;;;;;;;36.58;7.82;;;14.10;99.90;;;;;;4957640;28;20066;-73
2022/05/14 07:00:12;;;;;;;23.05;7.43;;;14.20;99.90;;;;;;4956123;29;20511;-74
2022/05/14 07:02:39;;;;;;;35.53;8.18;;;14.30;99.90;;;;;;4956852;29;20047;-73
2022/05/14 07:07:50;;;;;;;27.70;7.65;;;14.60;99.90;;;;;;4955974;29;20114;-73
2022/05/14 07:10:16;;;;;;;31.85;7.60;;;14.70;99.90;;;;;;4955950;28;20063;-73
2022/05/14 07:12:42;;;;;;;24.48;6.97;;;14.80;99.90;;;;;;4956193;29;20102;-77
2022/05/14 07:15:08;;;;;;;29.67;7.45;;;14.90;99.90;;;;;;4971734;28;20606;-75
2022/05/14 07:17:34;;;;;;;23.67;6.63;;;14.90;99.90;;;;;;4957134;29;20051;-80
2022/05/14 07:20:00;;;;;;;22.60;5.53;;;15.10;99.90;;;;;;4957374;28;20054;-75
2022/05/14 07:22:28;;;;;;;30.60;7.40;;;15.20;99.90;;;;;;4956842;28;20047;-75
2022/05/14 07:24:54;;;;;;;31.58;6.75;;;15.30;99.90;;;;;;4956852;29;20054;-76
2022/05/14 07:27:20;;;;;;;33.28;5.80;;;15.40;99.90;;;;;;4956779;28;20051;-75
2022/05/14 07:29:46;;;;;;;30.88;7.15;;;15.50;99.90;;;;;;4955719;28;20498;-75
2022/05/14 07:32:14;;;;;;;27.25;6.93;;;15.60;99.90;;;;;;4955692;29;20121;-76
2022/05/14 07:34:41;;;;;;;24.52;6.45;;;15.70;99.90;;;;;;4971485;28;20178;-76
2022/05/14 07:37:30;;;;;;;34.92;6.63;;;15.80;99.90;;;;;;4956646;29;20062;-77
2022/05/14 07:40:01;;;;;;;23.70;4.78;;;15.80;99.90;;;;;;4957036;28;20098;-75
2022/05/14 07:42:50;;;;;;;29.13;5.10;;;15.90;99.90;;;;;;4955281;29;20051;-74
2022/05/14 07:45:27;;;;;;;15.73;3.80;;;15.80;99.90;;;;;;4956584;28;20043;-72
2022/05/14 07:47:53;;;;;;;;;;;16.00;99.90;;;;;;4956649;28;20186;-72
2022/05/14 07:50:19;;;;;;;27.73;4.63;;;16.10;99.90;;;;;;4971304;28;20410;-73
2022/05/14 07:52:45;;;;;;;27.75;4.90;;;16.10;99.90;;;;;;4956699;28;20145;-73
2022/05/14 07:55:11;;;;;;;29.13;5.33;;;16.10;99.90;;;;;;4956420;29;20126;-76
2022/05/14 07:57:37;;;;;;;24.73;5.28;;;16.30;99.90;;;;;;4955539;29;20222;-74
2022/05/14 08:00:05;;;;;;;22.40;5.13;;;16.40;99.90;;;;;;4955655;29;20047;-73
2022/05/14 08:02:36;;;;;;;21.65;5.60;;;16.50;99.90;;;;;;4956028;29;20423;-73
2022/05/14 08:05:03;;;;;;;33.05;4.53;;;16.70;99.90;;;;;;4955700;28;20491;-78
2022/05/14 08:07:31;;;;;;;20.02;5.05;;;16.70;99.90;;;;;;4954861;29;20050;-74
2022/05/14 08:10:01;;;;;;;31.92;5.03;;;16.70;99.90;;;;;;4956024;29;20095;-74
2022/05/14 08:12:34;;;;;;;26.48;5.30;;;16.60;99.90;;;;;;4956760;28;20090;-74
2022/05/14 08:15:00;;;;;;;18.13;4.70;;;16.70;99.90;;;;;;4956989;29;20139;-74
2022/05/14 08:17:29;;;;;;;26.10;4.93;;;16.80;99.90;;;;;;4970684;28;20126;-73
2022/05/14 08:19:55;;;;;;;28.75;4.90;;;16.80;99.90;;;;;;4954975;28;20047;-74
2022/05/14 08:25:07;;;;;;;15.65;3.83;;;16.80;99.90;;;;;;4940912;29;20058;-74
2022/05/14 08:27:44;;;;;;;21.02;4.65;;;16.90;99.90;;;;;;4955605;29;20091;-74
2022/05/14 08:30:32;;;;;;;25.05;4.00;;;17.00;99.90;;;;;;4956351;28;20047;-73
2022/05/14 08:32:59;;;;;;;23.65;4.70;;;17.20;99.90;;;;;;4955870;29;20106;-74
2022/05/14 08:35:25;;;;;;;23.00;4.50;;;17.40;99.90;;;;;;4955080;29;20065;-76
2022/05/14 08:37:53;;;;;;;16.92;4.07;;;17.80;99.90;;;;;;4955330;29;20102;-74
2022/05/14 08:40:28;;;;;;;17.48;4.75;;;18.00;99.90;;;;;;4955301;28;20372;-73
2022/05/14 08:43:01;;;;;;;25.42;4.80;;;18.10;99.90;;;;;;4955813;28;20454;-73
2022/05/14 08:45:28;;;;;;;27.05;4.72;;;18.40;99.90;;;;;;4955930;29;20383;-74
2022/05/14 08:48:04;;;;;;;20.63;3.72;;;18.60;99.90;;;;;;4955181;29;20120;-73
2022/05/14 08:50:34;;;;;;;25.10;3.63;;;18.70;99.90;;;;;;4954990;28;20047;-73
2022/05/14 08:53:03;;;;;;;27.13;4.68;;;18.40;99.90;;;;;;4955311;29;20043;-73
2022/05/14 08:55:39;;;;;;;22.00;5.03;;;18.40;99.90;;;;;;4955615;28;20090;-74
2022/05/14 08:58:14;;;;;;;22.98;3.80;;;18.40;99.90;;;;;;4955058;28;20090;-73
2022/05/14 09:00:40;;;;;;;24.20;4.50;;;18.00;99.90;;;;;;4954931;29;20055;-74
2022/05/14 09:03:06;;;;;;;29.83;4.63;;;17.80;99.90;;;;;;4955447;29;20445;-74
2022/05/14 09:05:34;;;;;;;20.57;3.67;;;17.80;99.90;;;;;;4969833;28;20043;-74
2022/05/14 09:08:01;;;;;;;20.05;3.50;;;17.90;99.90;;;;;;4953885;29;20054;-75
2022/05/14 09:10:32;;;;;;;21.63;3.95;;;18.00;99.90;;;;;;4937531;29;20167;-75
2022/05/14 09:13:11;;;;;;;16.45;3.67;;;18.20;99.90;;;;;;4954939;29;20051;-77
2022/05/14 09:15:49;;;;;;;22.85;4.15;;;18.50;99.90;;;;;;4954954;28;20109;-73
2022/05/14 09:18:23;;;;;;;20.02;3.55;;;18.70;99.90;;;;;;4955244;29;20105;-75
2022/05/14 09:20:55;;;;;;;24.48;4.45;;;19.20;99.90;;;;;;4969536;28;20122;-79
2022/05/14 09:23:40;;;;;;;17.08;3.92;;;19.20;98.50;;;;;;4954693;29;20066;-73
2022/05/14 09:26:18;;;;;;;23.00;3.57;;;19.40;99.80;;;;;;4953399;28;20039;-74
2022/05/14 09:28:50;;;;;;;21.13;3.63;;;19.90;98.60;;;;;;4954651;28;20286;-74
2022/05/14 09:31:32;;;;;;;27.40;3.58;;;20.00;97.20;;;;;;4953380;29;20113;-74
2022/05/14 09:34:13;;;;;;;18.73;3.78;;;20.10;95.80;;;;;;4954700;28;20046;-74
2022/05/14 09:36:39;;;;;;;20.05;3.63;;;19.80;96.40;;;;;;4954025;29;20432;-73
2022/05/14 09:39:22;;;;;;;23.13;3.67;;;19.70;96.00;;;;;;4955377;28;20126;-73
2022/05/14 09:41:56;;;;;;;17.95;3.35;;;19.80;96.40;;;;;;4969550;28;20039;-73
2022/05/14 09:44:26;;;;;;;21.48;3.60;;;19.70;94.60;;;;;;4954939;29;20139;-73
2022/05/14 09:47:11;;;;;;;22.92;3.63;;;19.50;94.90;;;;;;4953191;29;20050;-74
2022/05/14 09:49:42;;;;;;;25.42;3.55;;;19.40;94.90;;;;;;4953735;29;20133;-75
2022/05/14 09:52:10;;;;;;;26.70;4.00;;;19.20;95.10;;;;;;4952976;29;20472;-75
2022/05/14 09:54:42;;;;;;;18.05;2.70;;;19.20;95.70;;;;;;4954445;29;20051;-74
2022/05/14 09:57:30;;;;;;;16.83;2.80;;;18.90;94.40;;;;;;4953366;29;20071;-74
2022/05/14 10:00:28;;;;;;;24.63;3.08;;;18.80;93.90;;;;;;4954445;28;20074;-74
2022/05/14 10:03:22;;;;;;;29.63;3.30;;;18.60;94.30;;;;;;4951177;29;20066;-74
2022/05/14 10:06:05;;;;;;;23.60;3.58;;;18.70;95.90;;;;;;4944741;29;20463;-74
2022/05/14 10:08:40;;;;;;;19.45;3.63;;;18.80;97.60;;;;;;4954884;29;20448;-74
2022/05/14 10:11:21;;;;;;;21.70;4.18;;;19.00;97.20;;;;;;4954236;28;20134;-74
2022/05/14 10:14:09;;;;;;;23.38;4.43;;;19.10;96.70;;;;;;4955204;28;20055;-74
2022/05/14 10:16:56;;;;;;;25.83;4.10;;;19.30;96.60;;;;;;4953981;29;20539;-75
2022/05/14 10:19:58;;;;;;;24.92;4.07;;;19.20;96.80;;;;;;4954882;28;20475;-75
2022/05/14 10:26:44;;;;;;;25.60;3.75;;;19.10;96.30;;;;;;4953282;28;20047;-75
2022/05/14 10:28:12;;;;;;;18.95;3.17;;;19.50;95.60;;;;;;4954282;29;20174;-76
2022/05/14 10:30:58;;;;;;;27.42;3.53;;;19.90;94.40;;;;;;4953407;29;20055;-76
2022/05/14 10:33:27;;;;;;;21.30;2.55;;;20.20;93.90;;;;;;4954873;28;20044;-74
2022/05/14 10:36:12;;;;;;;19.17;3.30;;;20.70;92.90;;;;;;4952767;28;20051;-79
2022/05/14 10:38:45;;;;;;;22.25;3.35;;;20.90;90.30;;;;;;4937302;29;20107;-73
2022/05/14 10:41:14;;;;;;;15.57;2.40;;;21.10;91.20;;;;;;4953670;29;20153;-74
2022/05/14 10:43:48;;;;;;;24.75;3.22;;;21.30;90.50;;;;;;4953707;28;20044;-74
2022/05/14 10:46:20;;;;;;;20.88;3.25;;;20.90;86.10;;;;;;4953892;29;20122;-74
2022/05/14 10:48:59;;;;;;;23.58;3.03;;;20.60;82.70;;;;;;4953203;29;20057;-74
2022/05/14 10:51:42;;;;;;;22.05;2.97;;;20.50;82.60;;;;;;4952495;29;20051;-73
2022/05/14 10:54:14;;;;;;;20.25;3.03;;;20.80;83.50;;;;;;4952835;29;20051;-75
2022/05/14 10:56:56;;;;;;;16.00;2.55;;;20.80;86.10;;;;;;4954116;29;20040;-74
2022/05/14 10:59:49;;;;;;;22.08;3.10;;;20.90;84.50;;;;;;4954057;28;20046;-74
2022/05/14 11:02:28;;;;;;;19.17;3.47;;;20.40;82.40;;;;;;4952681;29;20091;-75
2022/05/14 11:04:54;;;;;;;20.30;2.85;;;20.70;84.60;;;;;;4955401;28;20115;-74
2022/05/14 11:07:29;;;;;;;19.73;2.85;;;20.70;84.40;;;;;;4957895;29;20333;-76
2022/05/14 11:10:09;;;;;;;19.40;2.85;;;20.60;84.90;;;;;;4956107;29;20095;-75
2022/05/14 11:12:35;;;;;;;18.83;3.28;;;20.60;84.40;;;;;;4957869;28;20122;-76
2022/05/14 11:15:03;;;;;;;18.23;2.77;;;20.40;82.90;;;;;;4955863;28;20459;-76
2022/05/14 11:17:35;;;;;;;21.58;2.63;;;20.60;84.80;;;;;;4955512;29;20283;-74
2022/05/14 11:20:07;;;;;;;20.13;2.72;;;20.70;83.60;;;;;;4971842;28;20058;-75
2022/05/14 11:22:43;;;;;;;19.50;2.60;;;21.00;80.60;;;;;;4971788;28;20043;-76
2022/05/14 11:25:12;;;;;;;17.92;3.20;;;21.20;80.50;;;;;;4971945;28;20392;-75
2022/05/14 11:27:39;;;;;;;20.67;3.22;;;21.40;78.70;;;;;;4972080;28;20055;-75
2022/05/14 11:30:11;;;;;;;23.55;3.15;;;21.10;78.20;;;;;;4955708;29;20122;-76
2022/05/14 11:32:51;;;;;;;17.45;3.13;;;20.70;78.10;;;;;;4939729;29;20491;-76
2022/05/14 11:35:18;;;;;;;21.83;3.28;;;20.40;80.40;;;;;;4939287;29;20055;-76
2022/05/14 11:37:50;;;;;;;18.10;2.90;;;20.50;80.30;;;;;;4956212;29;20058;-74
2022/05/14 11:40:22;;;;;;;24.42;2.95;;;20.80;79.60;;;;;;4957155;28;20051;-74
2022/05/14 11:43:25;;;;;;;19.88;2.90;;;21.10;78.70;;;;;;4955342;29;20059;-75
2022/05/14 11:46:14;;;;;;;21.67;2.67;;;21.10;76.10;;;;;;4935106;29;20094;-79
2022/05/14 11:48:54;;;;;;;24.92;3.25;;;20.50;76.30;;;;;;4955287;29;20047;-74
2022/05/14 11:51:41;;;;;;;20.00;3.10;;;20.00;78.10;;;;;;4956928;29;20090;-75
2022/05/14 11:54:15;;;;;;;17.05;2.72;;;20.40;78.90;;;;;;4955213;29;20047;-74
2022/05/14 11:56:50;;;;;;;20.92;3.00;;;20.30;78.70;;;;;;4956479;28;20050;-75
2022/05/14 11:59:41;;;;;;;21.23;2.90;;;20.30;79.50;;;;;;4939661;29;20055;-76
2022/05/14 12:02:20;;;;;;;24.48;2.90;;;20.20;77.50;;;;;;4970863;28;20492;-74
2022/05/14 12:04:52;;;;;;;18.52;2.88;;;20.30;79.70;;;;;;4956568;28;20395;-75
2022/05/14 12:07:57;;;;;;;25.40;2.95;;;20.50;79.30;;;;;;4956125;28;20051;-74
2022/05/14 12:10:29;;;;;;;16.30;3.07;;;20.80;76.80;;;;;;4956387;28;20066;-76
2022/05/14 12:12:55;;;;;;;23.73;3.08;;;21.10;76.70;;;;;;4970808;28;20337;-75
2022/05/14 12:15:24;;;;;;;18.37;2.47;;;20.70;74.30;;;;;;4954341;28;20090;-75
2022/05/14 12:17:53;;;;;;;17.73;2.97;;;20.90;75.80;;;;;;4970990;28;20053;-74
2022/05/14 12:20:27;;;;;;;21.15;2.90;;;21.20;76.00;;;;;;4956413;29;20047;-74
2022/05/14 12:23:02;;;;;;;16.88;3.10;;;21.40;75.20;;;;;;4956502;28;20162;-74
2022/05/14 12:25:38;;;;;;;19.95;3.35;;;21.20;72.10;;;;;;4955903;29;20058;-75
2022/05/14 12:28:04;;;;;;;16.53;2.90;;;20.90;72.80;;;;;;4938762;29;20055;-74
2022/05/14 12:33:18;;;;;;;18.13;2.90;;;20.60;74.10;;;;;;4954827;29;20148;-75
2022/05/14 12:36:11;;;;;;;18.25;3.40;;;20.70;73.80;;;;;;4955012;29;20078;-75
2022/05/14 12:38:39;;;;;;;18.60;3.00;;;20.80;71.70;;;;;;4954374;28;20122;-75
2022/05/14 12:41:16;;;;;;;16.13;3.22;;;20.80;71.70;;;;;;4955458;29;20055;-75
2022/05/14 12:43:43;;;;;;;19.48;2.95;;;21.20;72.30;;;;;;4955417;28;20563;-75
2022/05/14 12:46:10;;;;;;;21.52;2.83;;;21.30;71.20;;;;;;4953894;29;20105;-76
2022/05/14 12:48:45;;;;;;;17.92;3.17;;;21.20;70.70;;;;;;4955107;28;20491;-75
2022/05/14 12:51:17;;;;;;;16.85;2.40;;;20.80;70.70;;;;;;4970185;28;20051;-76
2022/05/14 12:53:43;;;;;;;16.73;2.95;;;20.60;70.10;;;;;;4955209;29;20468;-75
2022/05/14 12:56:09;;;;;;;24.67;3.17;;;20.60;72.50;;;;;;4970032;28;20198;-74
2022/05/14 12:58:36;;;;;;;19.70;2.88;;;20.60;73.60;;;;;;4955070;29;20478;-76
2022/05/14 13:01:04;;;;;;;20.63;3.03;;;20.60;73.00;;;;;;4953986;29;20047;-77
2022/05/14 13:03:50;;;;;;;20.25;3.42;;;20.60;72.20;;;;;;4955021;28;20083;-78
2022/05/14 13:06:27;;;;;;;21.42;2.88;;;20.40;72.20;;;;;;4954249;29;20157;-76
2022/05/14 13:09:02;;;;;;;19.33;3.25;;;20.40;72.50;;;;;;4953902;29;20048;-75
2022/05/14 13:11:30;;;;;;;20.93;3.03;;;20.40;73.40;;;;;;4955480;29;20142;-75
2022/05/14 13:14:15;;;;;;;18.95;3.17;;;20.20;72.20;;;;;;4953999;29;20447;-74
2022/05/14 13:16:41;;;;;;;26.10;3.45;;;20.30;73.40;;;;;;4954791;29;20040;-75
2022/05/14 13:19:37;;;;;;;22.15;3.05;;;20.00;73.80;;;;;;4954998;28;20061;-75